Time;durP1;ratioP1;P1;durP2;ratioP2;P2;SDS_P1;SDS_P2;PMS_P1;PMS_P2;Temp;Humidity;BMP_temperature;BMP_pressure;BME280_temperature;BME280_humidity;BME280_pressure;Samples;Min_cycle;Max_cycle;Signal;HPM_P1;HPM_P2
2022/06/21 00:02:11;;;;;;;3.45;3.15;;;8.20;99.90;;;;;;4908573;29;20088;-90
2022/06/21 00:04:37;;;;;;;4.43;4.03;;;8.20;99.90;;;;;;4901612;29;20027;-92
2022/06/21 00:07:05;;;;;;;4.05;3.20;;;8.10;99.90;;;;;;4900561;29;20040;-90
2022/06/21 00:09:30;;;;;;;3.47;3.00;;;8.10;99.90;;;;;;4919550;29;20484;-91
2022/06/21 00:11:56;;;;;;;5.65;3.80;;;8.10;99.90;;;;;;4923474;29;20047;-91
2022/06/21 00:14:22;;;;;;;3.60;3.30;;;8.00;99.90;;;;;;4902488;29;20023;-89
2022/06/21 00:16:47;;;;;;;3.63;3.33;;;7.90;99.90;;;;;;4915928;29;20111;-91
2022/06/21 00:19:20;;;;;;;4.07;2.97;;;7.90;99.90;;;;;;4896544;29;20087;-91
2022/06/21 00:21:47;;;;;;;4.35;3.00;;;7.90;99.90;;;;;;4915463;29;20039;-90
2022/06/21 00:24:16;;;;;;;5.28;3.50;;;7.80;99.90;;;;;;4924303;29;20043;-90
2022/06/21 00:26:42;;;;;;;6.88;3.80;;;7.80;99.90;;;;;;4903875;29;20780;-90
2022/06/21 00:29:08;;;;;;;5.47;3.20;;;7.70;99.90;;;;;;4892988;29;20054;-89
2022/06/21 00:31:36;;;;;;;5.32;2.60;;;7.70;99.90;;;;;;4896375;29;20555;-90
2022/06/21 00:34:16;;;;;;;2.85;2.45;;;7.70;99.90;;;;;;4919617;29;20028;-91
2022/06/21 00:36:42;;;;;;;4.10;3.35;;;7.60;99.90;;;;;;4916530;29;20035;-91
2022/06/21 00:39:13;;;;;;;3.88;3.58;;;7.50;99.90;;;;;;4909637;29;20032;-90
2022/06/21 00:41:54;;;;;;;2.92;2.70;;;7.50;99.90;;;;;;4925265;29;20520;-90
2022/06/21 00:44:38;;;;;;;4.03;3.72;;;7.50;99.90;;;;;;4924283;29;20035;-90
2022/06/21 00:47:44;;;;;;;4.95;4.55;;;7.40;99.90;;;;;;4923838;29;20115;-90
2022/06/21 00:50:26;;;;;;;4.55;4.15;;;7.40;99.90;;;;;;4897698;29;20029;-90
2022/06/21 00:53:04;;;;;;;4.80;4.40;;;7.50;99.90;;;;;;4917089;29;20035;-90
2022/06/21 00:55:45;;;;;;;3.88;3.58;;;7.50;99.90;;;;;;4922616;29;20039;-90
2022/06/21 00:58:13;;;;;;;4.25;3.88;;;7.40;99.90;;;;;;4922614;29;20032;-91
2022/06/21 01:00:53;;;;;;;8.55;4.80;;;7.40;99.90;;;;;;4914529;29;20044;-90
2022/06/21 01:03:24;;;;;;;5.47;4.55;;;7.40;99.90;;;;;;4916553;29;20028;-90
2022/06/21 01:05:51;;;;;;;7.60;5.57;;;7.30;99.90;;;;;;4931242;29;20509;-91
2022/06/21 01:08:25;;;;;;;6.00;5.50;;;7.30;99.90;;;;;;4911600;29;20044;-90
2022/06/21 01:10:56;;;;;;;5.25;4.85;;;7.30;99.90;;;;;;4888752;29;20784;-91
2022/06/21 01:13:28;;;;;;;5.53;4.75;;;7.20;99.90;;;;;;4899994;29;20127;-90
2022/06/21 01:15:55;;;;;;;5.32;4.93;;;7.20;99.90;;;;;;4898162;29;20044;-90
2022/06/21 01:18:23;;;;;;;4.78;4.43;;;7.20;99.90;;;;;;4926375;29;20040;-90
2022/06/21 01:20:53;;;;;;;5.45;5.05;;;7.20;99.90;;;;;;4898570;29;20032;-90
2022/06/21 01:23:42;;;;;;;7.65;6.07;;;7.20;99.90;;;;;;4899993;29;20029;-91
2022/06/21 01:26:33;;;;;;;6.75;4.82;;;7.20;99.90;;;;;;4922829;29;20024;-89
2022/06/21 01:29:00;;;;;;;7.85;5.20;;;7.20;99.90;;;;;;4917818;29;20024;-92
2022/06/21 01:31:28;;;;;;;9.93;5.57;;;7.20;99.90;;;;;;4917233;29;20083;-90
2022/06/21 01:33:53;;;;;;;5.53;5.03;;;7.20;99.90;;;;;;4897325;29;20071;-90
2022/06/21 01:36:27;;;;;;;6.47;5.45;;;7.20;99.90;;;;;;4916945;29;20048;-90
2022/06/21 01:39:11;;;;;;;7.68;5.43;;;7.20;99.90;;;;;;4918763;29;20073;-90
2022/06/21 01:41:46;;;;;;;9.75;4.28;;;7.20;99.90;;;;;;4913513;29;20028;-90
2022/06/21 01:44:20;;;;;;;5.90;5.20;;;7.20;99.90;;;;;;4918953;29;20028;-90
2022/06/21 01:46:46;;;;;;;5.43;5.03;;;7.10;99.90;;;;;;4902548;29;20091;-90
2022/06/21 01:49:17;;;;;;;4.80;4.40;;;7.10;99.90;;;;;;4905068;29;20552;-91
2022/06/21 01:52:09;;;;;;;5.10;4.60;;;7.10;99.90;;;;;;4913515;29;20091;-90
2022/06/21 01:54:39;;;;;;;5.13;4.60;;;7.00;99.90;;;;;;4930529;29;20043;-91
2022/06/21 01:57:10;;;;;;;5.03;4.63;;;6.90;99.90;;;;;;4925765;29;20098;-91
2022/06/21 01:59:43;;;;;;;;;;;6.90;99.90;;;;;;4934656;29;20028;-93
2022/06/21 02:02:13;;;;;;;5.22;4.63;;;6.90;99.90;;;;;;4911722;29;20010;-90
2022/06/21 02:04:51;;;;;;;4.35;3.90;;;6.80;99.90;;;;;;4909866;29;20028;-91
2022/06/21 02:07:20;;;;;;;4.65;3.40;;;6.80;99.90;;;;;;4894402;29;20692;-91
2022/06/21 02:10:24;;;;;;;4.10;3.80;;;6.70;99.90;;;;;;4920001;29;20090;-90
2022/06/21 02:12:55;;;;;;;5.95;4.90;;;6.70;99.90;;;;;;4923886;29;20126;-90
2022/06/21 02:15:25;;;;;;;5.38;4.82;;;6.60;99.90;;;;;;4905255;29;20449;-89
2022/06/21 02:17:52;;;;;;;7.63;4.75;;;6.60;99.90;;;;;;4905876;29;20032;-90
2022/06/21 02:20:42;;;;;;;4.93;4.30;;;6.60;99.90;;;;;;4922919;29;20115;-90
2022/06/21 02:23:13;;;;;;;4.85;4.43;;;6.50;99.90;;;;;;4910463;29;20027;-90
2022/06/21 02:25:40;;;;;;;10.57;5.20;;;6.50;99.90;;;;;;4923634;29;20116;-92
2022/06/21 02:28:08;;;;;;;6.10;5.60;;;6.50;99.90;;;;;;4901230;29;20088;-90
2022/06/21 02:30:37;;;;;;;6.90;5.97;;;6.50;99.90;;;;;;4918953;29;20500;-90
2022/06/21 02:33:06;;;;;;;5.65;5.00;;;6.50;99.90;;;;;;4903261;29;20036;-89
2022/06/21 02:35:40;;;;;;;6.97;6.20;;;6.50;99.90;;;;;;4899126;29;20040;-91
2022/06/21 02:38:10;;;;;;;6.38;5.82;;;6.50;99.90;;;;;;4926464;29;20036;-90
2022/06/21 02:40:42;;;;;;;7.82;7.13;;;6.50;99.90;;;;;;4908863;29;20599;-89
2022/06/21 02:43:13;;;;;;;;;;;6.50;99.90;;;;;;4907093;29;20033;-91
2022/06/21 02:45:51;;;;;;;;;;;6.40;99.90;;;;;;4886094;29;19911;-90
2022/06/21 02:48:33;;;;;;;6.93;6.35;;;6.40;99.90;;;;;;4901412;29;19915;-91
2022/06/21 02:51:05;;;;;;;7.15;6.50;;;6.50;99.90;;;;;;4915750;29;20501;-92
2022/06/21 02:53:39;;;;;;;6.82;6.32;;;6.50;99.90;;;;;;4919447;29;20020;-91
2022/06/21 02:56:28;;;;;;;8.30;6.93;;;6.50;99.90;;;;;;4921081;29;20437;-90
2022/06/21 02:58:57;;;;;;;6.65;5.57;;;6.40;99.90;;;;;;4899130;29;20385;-90
2022/06/21 03:01:31;;;;;;;6.97;4.75;;;6.50;99.90;;;;;;4904351;29;20029;-90
2022/06/21 03:03:58;;;;;;;5.10;4.60;;;6.40;99.90;;;;;;4929785;29;20063;-91
2022/06/21 03:06:26;;;;;;;6.38;5.28;;;6.40;99.90;;;;;;4914889;29;20039;-90
2022/06/21 03:08:58;;;;;;;6.80;6.20;;;6.40;99.90;;;;;;4922126;29;20095;-91
2022/06/21 03:11:28;;;;;;;5.30;4.80;;;6.40;99.90;;;;;;4909135;29;20032;-90
2022/06/21 03:13:56;;;;;;;6.13;5.57;;;6.40;99.90;;;;;;4910864;29;20377;-91
2022/06/21 03:16:22;;;;;;;8.07;6.00;;;6.30;99.90;;;;;;4909654;29;20035;-91
2022/06/21 03:18:52;;;;;;;7.85;6.28;;;6.40;99.90;;;;;;4891841;29;20071;-91
2022/06/21 03:21:30;;;;;;;6.53;6.03;;;6.40;99.90;;;;;;4894280;29;20025;-91
2022/06/21 03:23:57;;;;;;;10.18;6.00;;;6.40;99.90;;;;;;4911634;29;20039;-90
2022/06/21 03:26:24;;;;;;;8.50;6.30;;;6.40;99.90;;;;;;4885636;29;20532;-90
2022/06/21 03:28:52;;;;;;;7.88;5.72;;;6.40;99.90;;;;;;4921744;29;20476;-91
2022/06/21 03:31:24;;;;;;;22.80;5.20;;;6.40;99.90;;;;;;4929001;29;20549;-91
2022/06/21 03:33:53;;;;;;;4.50;4.00;;;6.40;99.90;;;;;;4921354;29;20548;-91
2022/06/21 03:36:25;;;;;;;6.72;3.80;;;6.30;99.90;;;;;;4911416;29;20043;-90
2022/06/21 03:41:42;;;;;;;4.30;3.90;;;6.30;99.90;;;;;;4917450;29;20032;-91
2022/06/21 03:42:08;;;;;;;5.15;4.75;;;6.20;99.90;;;;;;4931011;29;20032;-91
2022/06/21 03:44:40;;;;;;;6.72;6.10;;;6.20;99.90;;;;;;4915454;29;20039;-91
2022/06/21 03:47:09;;;;;;;5.20;4.80;;;6.20;99.90;;;;;;4929412;29;20034;-91
2022/06/21 03:49:42;;;;;;;5.88;5.38;;;6.20;99.90;;;;;;4924682;29;20537;-90
2022/06/21 03:52:13;;;;;;;6.53;5.47;;;6.30;99.90;;;;;;4920276;29;20099;-91
2022/06/21 03:54:49;;;;;;;5.22;4.82;;;6.30;99.90;;;;;;4923978;29;20040;-92
2022/06/21 03:57:18;;;;;;;6.97;5.82;;;6.30;99.90;;;;;;4927066;29;20073;-91
2022/06/21 04:00:06;;;;;;;4.85;4.45;;;6.30;99.90;;;;;;4904283;29;20036;-90
2022/06/21 04:02:41;;;;;;;6.20;5.60;;;6.30;99.90;;;;;;4910658;29;20035;-91
2022/06/21 04:05:16;;;;;;;6.90;5.70;;;6.30;99.90;;;;;;4913108;29;20060;-91
2022/06/21 04:07:54;;;;;;;6.50;5.90;;;6.30;99.90;;;;;;4915386;29;20079;-91
2022/06/21 04:10:43;;;;;;;6.03;5.53;;;6.40;99.90;;;;;;4916358;29;20048;-91
2022/06/21 04:13:21;;;;;;;5.47;5.03;;;6.40;99.90;;;;;;4885922;29;20043;-90
2022/06/21 04:16:02;;;;;;;6.32;5.82;;;6.40;99.90;;;;;;4915693;29;20074;-90
2022/06/21 04:18:36;;;;;;;6.93;6.22;;;6.50;99.90;;;;;;4928622;29;20031;-90
2022/06/21 04:21:15;;;;;;;6.55;5.95;;;6.60;99.90;;;;;;4897812;29;20063;-90
2022/06/21 04:23:46;;;;;;;7.68;6.07;;;6.60;99.90;;;;;;4892223;29;20101;-91
2022/06/21 04:26:37;;;;;;;6.90;6.20;;;6.70;99.90;;;;;;4914623;29;20143;-90
2022/06/21 04:29:10;;;;;;;7.03;6.22;;;6.90;99.90;;;;;;4915448;29;20028;-90
2022/06/21 04:31:45;;;;;;;7.47;6.72;;;6.90;99.90;;;;;;4917223;29;20031;-90
2022/06/21 04:34:20;;;;;;;6.40;5.90;;;7.10;99.90;;;;;;4917514;29;20079;-90
2022/06/21 04:36:58;;;;;;;7.88;6.60;;;7.20;99.90;;;;;;4910337;29;20055;-90
2022/06/21 04:39:59;;;;;;;7.78;7.18;;;7.30;99.90;;;;;;4905129;29;20116;-91
2022/06/21 04:42:53;;;;;;;6.83;5.90;;;7.40;99.90;;;;;;4908647;29;20055;-91
2022/06/21 04:45:32;;;;;;;7.45;6.85;;;7.50;99.90;;;;;;4870989;29;20033;-91
2022/06/21 04:48:25;;;;;;;7.80;7.10;;;7.60;99.90;;;;;;4904487;29;20036;-90
2022/06/21 04:51:15;;;;;;;6.88;6.28;;;7.70;99.90;;;;;;4910773;29;20036;-91
2022/06/21 04:53:47;;;;;;;8.43;6.38;;;7.80;99.90;;;;;;4887537;29;20025;-91
2022/06/21 04:56:24;;;;;;;7.20;6.50;;;7.90;99.90;;;;;;4933035;29;20398;-90
2022/06/21 04:58:51;;;;;;;6.63;6.03;;;8.00;99.90;;;;;;4921823;29;20405;-90
2022/06/21 05:01:29;;;;;;;6.15;5.47;;;8.10;99.90;;;;;;4922247;29;20035;-92
2022/06/21 05:03:58;;;;;;;6.38;5.75;;;8.20;99.90;;;;;;4891250;29;20040;-91
2022/06/21 05:06:25;;;;;;;6.50;6.00;;;8.30;99.90;;;;;;4921411;29;20110;-90
2022/06/21 05:08:51;;;;;;;7.00;5.45;;;8.50;99.90;;;;;;4930737;29;20028;-91
2022/06/21 05:11:17;;;;;;;7.22;6.63;;;8.70;99.90;;;;;;4915748;29;20382;-91
2022/06/21 05:13:48;;;;;;;5.30;4.38;;;9.10;99.90;;;;;;4927900;29;21262;-91
2022/06/21 05:16:25;;;;;;;4.22;3.42;;;10.00;99.90;;;;;;4920400;29;20090;-91
2022/06/21 05:18:59;;;;;;;3.80;2.70;;;11.60;99.90;;;;;;4914467;29;20044;-91
2022/06/21 05:21:44;;;;;;;3.28;2.95;;;13.40;99.90;;;;;;4918982;29;20090;-92
2022/06/21 05:24:11;;;;;;;2.75;2.42;;;15.30;99.90;;;;;;4922133;29;20047;-91
2022/06/21 05:26:46;;;;;;;3.95;2.30;;;17.00;99.90;;;;;;4909745;29;20103;-92
2022/06/21 05:29:22;;;;;;;2.60;2.33;;;18.00;99.90;;;;;;4936910;29;20028;-92
2022/06/21 05:31:53;;;;;;;3.53;2.10;;;19.50;99.90;;;;;;4908408;29;20400;-91
2022/06/21 05:34:31;;;;;;;2.03;1.70;;;20.70;90.20;;;;;;4901032;29;20606;-91
2022/06/21 05:37:15;;;;;;;2.83;1.83;;;21.50;84.30;;;;;;4920929;29;20040;-91
2022/06/21 05:39:48;;;;;;;1.95;1.73;;;22.10;72.20;;;;;;4886680;29;20028;-92
2022/06/21 05:42:16;;;;;;;4.10;1.50;;;23.00;65.80;;;;;;4901570;29;20054;-93
2022/06/21 05:44:47;;;;;;;3.28;1.80;;;23.80;58.80;;;;;;4908553;29;20032;-94
2022/06/21 05:47:30;;;;;;;2.15;1.60;;;24.20;55.80;;;;;;4894555;29;20029;-92
2022/06/21 05:49:57;;;;;;;2.55;2.03;;;24.10;56.90;;;;;;4918224;29;20048;-92
2022/06/21 05:52:30;;;;;;;4.07;1.65;;;24.20;57.30;;;;;;4918877;29;20036;-91
2022/06/21 05:55:05;;;;;;;2.13;1.92;;;24.30;55.50;;;;;;4916278;29;20612;-91
2022/06/21 05:57:46;;;;;;;2.55;1.75;;;24.20;55.90;;;;;;4925347;29;20032;-91
2022/06/21 06:00:27;;;;;;;8.38;1.60;;;25.10;53.60;;;;;;4917819;29;20032;-91
2022/06/21 06:02:58;;;;;;;2.97;1.63;;;25.40;54.60;;;;;;4885340;29;20452;-93
2022/06/21 06:05:30;;;;;;;3.97;1.60;;;25.00;53.40;;;;;;4908848;29;20055;-91
2022/06/21 06:08:10;;;;;;;2.00;1.27;;;25.90;53.00;;;;;;4918400;29;20063;-92
2022/06/21 06:10:38;;;;;;;4.95;1.30;;;25.80;51.30;;;;;;4927801;29;20130;-91
2022/06/21 06:13:33;;;;;;;3.03;1.52;;;25.20;52.60;;;;;;4902932;29;20036;-89
2022/06/21 06:16:04;;;;;;;3.80;1.40;;;25.60;52.40;;;;;;4913327;29;20104;-92
2022/06/21 06:18:55;;;;;;;2.17;1.25;;;25.90;51.30;;;;;;4917561;29;20036;-92
2022/06/21 06:21:33;;;;;;;2.25;1.20;;;26.00;51.00;;;;;;4915834;29;20060;-92
2022/06/21 06:24:07;;;;;;;1.55;1.20;;;26.80;50.40;;;;;;4927996;29;20033;-94
2022/06/21 06:26:45;;;;;;;2.53;1.23;;;27.60;49.00;;;;;;4937490;29;20117;-92
2022/06/21 06:29:23;;;;;;;2.20;1.17;;;28.30;47.20;;;;;;4937427;29;20028;-93
2022/06/21 06:31:52;;;;;;;1.55;0.90;;;28.60;46.00;;;;;;4925396;29;20028;-94
2022/06/21 06:34:22;;;;;;;1.90;0.98;;;29.10;45.70;;;;;;4906558;29;20083;-91
2022/06/21 06:36:52;;;;;;;4.47;1.27;;;29.30;45.10;;;;;;4905427;29;20039;-93
2022/06/21 06:39:25;;;;;;;3.10;1.13;;;29.00;45.60;;;;;;4906875;29;20044;-92
2022/06/21 06:41:59;;;;;;;2.65;1.00;;;29.40;45.30;;;;;;4907987;29;20397;-93
2022/06/21 06:44:28;;;;;;;2.13;1.10;;;29.70;45.60;;;;;;4900032;29;20111;-91
2022/06/21 06:46:55;;;;;;;2.15;0.90;;;29.70;45.10;;;;;;4914521;29;20033;-93
2022/06/21 06:49:52;;;;;;;1.27;0.80;;;30.30;44.40;;;;;;4913083;29;20394;-91
2022/06/21 06:52:26;;;;;;;1.77;1.10;;;30.70;42.20;;;;;;4917876;29;20036;-91
2022/06/21 06:54:58;;;;;;;2.97;0.95;;;31.10;42.90;;;;;;4886900;29;20033;-92
2022/06/21 06:57:51;;;;;;;2.13;0.90;;;31.60;41.60;;;;;;4910893;29;20032;-91
2022/06/21 07:00:22;;;;;;;1.10;1.00;;;32.20;40.70;;;;;;4900158;29;20746;-92
2022/06/21 07:03:01;;;;;;;1.45;0.88;;;32.10;39.70;;;;;;4920457;29;20041;-92
2022/06/21 07:05:49;;;;;;;2.45;0.73;;;31.50;38.80;;;;;;4929468;29;20035;-92
2022/06/21 07:08:34;;;;;;;2.03;1.13;;;31.70;38.90;;;;;;4909221;29;20037;-92
2022/06/21 07:11:09;;;;;;;2.88;1.00;;;31.90;38.80;;;;;;4916009;29;20167;-92
2022/06/21 07:13:35;;;;;;;3.45;1.20;;;32.30;38.50;;;;;;4926244;29;20047;-90
2022/06/21 07:16:05;;;;;;;2.05;1.08;;;32.60;38.00;;;;;;4914510;29;20041;-92
2022/06/21 07:18:32;;;;;;;;;;;33.20;37.50;;;;;;4917938;29;20035;-91
2022/06/21 07:20:59;;;;;;;2.53;0.85;;;33.50;37.10;;;;;;4918749;29;19919;-92
2022/06/21 07:23:27;;;;;;;2.13;0.95;;;33.30;37.90;;;;;;4912810;29;20040;-92
2022/06/21 07:25:58;;;;;;;0.98;0.70;;;33.00;36.10;;;;;;4924154;29;20028;-91
2022/06/21 07:28:28;;;;;;;2.67;0.80;;;33.20;37.00;;;;;;4910578;29;20058;-91
2022/06/21 07:30:58;;;;;;;2.07;0.90;;;33.90;37.40;;;;;;4917740;29;20028;-92
2022/06/21 07:33:26;;;;;;;;;;;34.20;37.00;;;;;;4919778;29;20064;-91
2022/06/21 07:36:04;;;;;;;1.98;0.90;;;33.90;35.90;;;;;;4912870;29;19935;-91
2022/06/21 07:39:08;;;;;;;1.48;0.82;;;33.80;36.70;;;;;;4925202;29;20123;-91
2022/06/21 07:41:47;;;;;;;2.38;0.80;;;33.70;35.70;;;;;;4877867;29;20033;-91
2022/06/21 07:44:29;;;;;;;2.03;0.77;;;34.00;35.30;;;;;;4917404;29;20101;-92
2022/06/21 07:47:05;;;;;;;1.25;0.73;;;34.00;36.20;;;;;;4908414;29;20039;-92
2022/06/21 07:49:51;;;;;;;3.05;0.60;;;34.10;35.50;;;;;;4913872;29;20116;-92
2022/06/21 07:52:45;;;;;;;2.42;0.60;;;34.20;35.00;;;;;;4883485;29;20036;-92
2022/06/21 07:55:21;;;;;;;2.13;0.80;;;34.30;33.90;;;;;;4918482;29;20503;-92
2022/06/21 07:57:54;;;;;;;2.35;0.80;;;34.30;32.50;;;;;;4898231;29;20054;-93
2022/06/21 08:00:22;;;;;;;2.10;0.82;;;34.60;33.30;;;;;;4919267;29;20039;-93
2022/06/21 08:09:12;;;;;;;3.00;0.98;;;35.10;32.10;;;;;;4930440;29;20068;-92
2022/06/21 08:11:42;;;;;;;1.15;0.60;;;34.80;31.60;;;;;;4887453;29;20044;-93
2022/06/21 08:14:09;;;;;;;2.58;0.95;;;35.50;32.90;;;;;;4913750;29;20145;-92
2022/06/21 08:17:00;;;;;;;3.80;0.60;;;35.40;32.70;;;;;;4908098;29;20013;-92
2022/06/21 08:19:54;;;;;;;3.05;0.82;;;35.30;32.20;;;;;;4917575;29;20509;-92
2022/06/21 08:22:29;;;;;;;2.15;0.70;;;35.10;31.40;;;;;;4896756;29;20089;-91
2022/06/21 08:25:13;;;;;;;2.47;0.85;;;35.20;31.50;;;;;;4921682;29;20036;-92
2022/06/21 08:27:56;;;;;;;1.40;0.50;;;35.20;31.20;;;;;;4901726;29;20408;-92
2022/06/21 08:30:39;;;;;;;1.13;0.60;;;34.90;31.90;;;;;;4895657;29;20339;-93
2022/06/21 08:33:13;;;;;;;1.30;0.60;;;34.90;31.50;;;;;;4899401;29;20038;-91
2022/06/21 08:35:51;;;;;;;3.78;0.90;;;35.10;33.50;;;;;;4920227;29;20083;-92
2022/06/21 08:38:24;;;;;;;1.92;0.70;;;34.60;32.10;;;;;;4932649;29;20110;-92
2022/06/21 08:44:39;;;;;;;2.65;0.70;;;34.00;33.00;;;;;;4913815;29;20086;-93
2022/06/21 08:47:17;;;;;;;0.80;0.70;;;33.80;33.50;;;;;;4914441;29;20035;-92
2022/06/21 08:50:01;;;;;;;1.90;0.70;;;33.90;33.10;;;;;;4908300;29;20028;-92
2022/06/21 08:52:51;;;;;;;3.00;0.75;;;33.90;33.20;;;;;;4892141;29;20032;-92
2022/06/21 08:55:27;;;;;;;0.90;0.53;;;33.90;33.10;;;;;;4917867;29;20032;-91
2022/06/21 08:58:01;;;;;;;1.48;0.50;;;33.90;31.70;;;;;;4923577;29;20032;-93
2022/06/21 09:00:36;;;;;;;1.65;0.70;;;34.40;32.30;;;;;;4910824;29;20462;-92
2022/06/21 09:03:22;;;;;;;2.17;0.80;;;34.90;31.90;;;;;;4914000;29;20036;-92
2022/06/21 09:06:11;;;;;;;1.88;0.65;;;34.60;31.80;;;;;;4892785;29;20648;-92
2022/06/21 09:08:59;;;;;;;0.93;0.60;;;34.40;33.40;;;;;;4892973;29;20032;-92
2022/06/21 09:11:30;;;;;;;2.33;0.65;;;34.90;33.00;;;;;;4913739;29;20449;-91
2022/06/21 09:14:09;;;;;;;3.75;0.80;;;34.70;32.40;;;;;;4897561;29;20028;-92
2022/06/21 09:16:56;;;;;;;1.57;0.60;;;34.40;34.30;;;;;;4931280;29;20032;-92
2022/06/21 09:19:47;;;;;;;0.65;0.50;;;34.40;33.50;;;;;;4908759;29;20036;-93
2022/06/21 09:22:22;;;;;;;1.75;0.60;;;34.70;31.80;;;;;;4913725;29;20099;-91
2022/06/21 09:25:12;;;;;;;2.13;0.60;;;34.80;31.50;;;;;;4929321;29;20038;-91
2022/06/21 09:27:48;;;;;;;1.05;0.73;;;34.30;31.40;;;;;;4922896;29;20047;-92
2022/06/21 09:30:20;;;;;;;1.30;0.77;;;33.90;32.70;;;;;;4886223;29;20037;-93
2022/06/21 09:33:06;;;;;;;1.90;0.50;;;34.00;32.70;;;;;;4929718;29;20111;-93
2022/06/21 09:35:47;;;;;;;2.28;0.60;;;34.20;32.60;;;;;;4922448;29;20029;-91
2022/06/21 09:38:21;;;;;;;0.75;0.50;;;34.80;32.50;;;;;;4913244;29;20039;-92
2022/06/21 09:41:21;;;;;;;2.53;0.70;;;35.70;31.20;;;;;;4921722;29;20118;-93
2022/06/21 09:44:01;;;;;;;0.90;0.50;;;36.90;30.00;;;;;;4919563;29;20036;-92
2022/06/21 09:46:40;;;;;;;;;;;37.10;30.10;;;;;;4903225;29;20092;-92
2022/06/21 09:49:53;;;;;;;1.38;0.50;;;36.80;27.70;;;;;;4904695;29;20428;-93
2022/06/21 09:52:22;;;;;;;1.73;0.70;;;37.60;28.10;;;;;;4858626;29;20069;-93
2022/06/21 09:55:14;;;;;;;2.22;0.68;;;38.00;28.40;;;;;;4905091;29;20040;-93
2022/06/21 09:58:03;;;;;;;3.22;0.55;;;38.40;28.40;;;;;;4908257;29;20036;-94
2022/06/21 10:00:40;;;;;;;4.43;0.80;;;38.50;28.50;;;;;;4876666;29;20476;-92
2022/06/21 10:03:39;;;;;;;2.25;0.70;;;37.90;28.10;;;;;;4885171;29;20460;-92
2022/06/21 10:06:08;;;;;;;1.50;0.60;;;37.60;29.00;;;;;;4932568;29;20035;-90
2022/06/21 10:08:34;;;;;;;0.98;0.70;;;37.10;28.50;;;;;;4929954;29;20031;-92
2022/06/21 10:11:17;;;;;;;0.50;0.40;;;36.70;29.10;;;;;;4934524;29;20020;-91
2022/06/21 10:13:43;;;;;;;1.63;0.50;;;37.70;28.00;;;;;;4900904;29;20781;-92
2022/06/21 10:16:18;;;;;;;3.05;0.68;;;38.20;27.10;;;;;;4891501;29;20043;-90
2022/06/21 10:19:23;;;;;;;1.00;0.50;;;37.90;27.00;;;;;;4921148;29;20128;-92
2022/06/21 10:21:57;;;;;;;2.90;0.73;;;37.00;29.00;;;;;;4930691;29;20020;-93
2022/06/21 10:24:44;;;;;;;3.38;0.80;;;36.40;29.30;;;;;;4915501;29;20112;-91
2022/06/21 10:27:10;;;;;;;0.95;0.52;;;35.80;29.50;;;;;;4929311;29;20052;-91
2022/06/21 10:29:54;;;;;;;2.17;0.88;;;36.00;30.00;;;;;;4894837;29;20075;-93
2022/06/21 10:32:32;;;;;;;2.97;0.75;;;35.70;31.00;;;;;;4885384;29;20040;-91
2022/06/21 10:35:32;;;;;;;1.45;0.80;;;35.70;31.00;;;;;;4921584;29;20035;-92
2022/06/21 10:38:13;;;;;;;4.38;0.65;;;35.20;30.40;;;;;;4921999;29;20128;-91
2022/06/21 10:41:00;;;;;;;2.03;0.60;;;35.10;31.50;;;;;;4918779;29;20047;-92
2022/06/21 10:43:38;;;;;;;3.22;0.88;;;34.80;29.60;;;;;;4884335;29;20029;-91
2022/06/21 10:46:28;;;;;;;3.35;0.70;;;33.50;30.20;;;;;;4933299;29;20032;-91
2022/06/21 10:49:14;;;;;;;0.98;0.65;;;32.80;33.10;;;;;;4889063;29;20037;-91
2022/06/21 10:52:04;;;;;;;1.02;0.60;;;33.00;31.70;;;;;;4882313;29;20521;-92
2022/06/21 10:54:55;;;;;;;2.50;0.60;;;33.30;33.10;;;;;;4903019;29;20107;-91
2022/06/21 10:57:53;;;;;;;0.95;0.73;;;32.00;33.10;;;;;;4912410;29;20033;-91
2022/06/21 11:03:28;;;;;;;2.00;0.60;;;31.80;36.50;;;;;;4906071;29;20065;-92
2022/06/21 11:05:58;;;;;;;1.88;0.60;;;32.20;33.50;;;;;;4898106;29;20024;-93
2022/06/21 11:08:56;;;;;;;2.05;0.85;;;32.80;34.50;;;;;;4924200;29;20107;-91
2022/06/21 11:11:40;;;;;;;0.77;0.55;;;32.90;31.90;;;;;;4892040;29;20036;-91
2022/06/21 11:14:14;;;;;;;1.40;0.70;;;31.40;31.30;;;;;;4901603;29;20013;-91
2022/06/21 11:17:05;;;;;;;0.90;0.63;;;31.20;35.00;;;;;;4895775;29;20016;-90
2022/06/21 11:19:30;;;;;;;1.48;0.60;;;30.40;33.30;;;;;;4894143;29;20103;-90
2022/06/21 11:22:14;;;;;;;1.67;0.63;;;30.40;36.50;;;;;;4916074;29;20028;-91
2022/06/21 11:25:01;;;;;;;1.08;0.73;;;30.60;35.60;;;;;;4924505;29;20028;-91
2022/06/21 11:27:56;;;;;;;1.80;0.88;;;30.60;35.70;;;;;;4923839;29;20028;-91
2022/06/21 11:31:03;;;;;;;2.22;0.70;;;29.80;33.70;;;;;;4887820;29;20029;-91
2022/06/21 11:34:07;;;;;;;1.95;0.52;;;29.50;35.50;;;;;;4899166;29;20040;-91
2022/06/21 11:37:10;;;;;;;0.73;0.57;;;29.70;36.10;;;;;;4821434;29;20026;-91
2022/06/21 11:39:40;;;;;;;2.28;0.65;;;29.80;37.10;;;;;;4836512;29;20038;-91
2022/06/21 11:42:06;;;;;;;1.48;0.70;;;29.70;35.40;;;;;;4875276;29;20125;-91
2022/06/21 11:44:59;;;;;;;2.63;0.68;;;29.60;34.20;;;;;;4909849;29;20123;-89
2022/06/21 11:48:02;;;;;;;1.60;0.60;;;29.90;35.50;;;;;;4912604;29;20033;-92
2022/06/21 11:51:12;;;;;;;2.45;0.70;;;30.30;34.00;;;;;;4926537;29;20032;-91
2022/06/21 11:53:52;;;;;;;1.20;0.60;;;29.90;33.70;;;;;;4891122;29;20099;-89
2022/06/21 11:56:25;;;;;;;1.23;0.60;;;30.30;35.10;;;;;;4922902;29;20114;-91
2022/06/21 11:59:11;;;;;;;1.55;0.65;;;30.30;35.50;;;;;;4911173;29;20511;-93
2022/06/21 12:01:56;;;;;;;1.80;0.50;;;31.10;36.00;;;;;;4889554;29;20056;-92
2022/06/21 12:04:46;;;;;;;1.20;0.52;;;31.80;34.50;;;;;;4907265;29;20519;-91
2022/06/21 12:07:14;;;;;;;0.77;0.60;;;32.10;33.00;;;;;;4926590;29;20032;-92
2022/06/21 12:09:57;;;;;;;1.05;0.75;;;32.30;33.50;;;;;;4902459;29;20060;-91
2022/06/21 12:12:55;;;;;;;1.45;0.60;;;32.00;32.50;;;;;;4904234;29;20528;-91
2022/06/21 12:15:58;;;;;;;0.68;0.60;;;31.60;31.50;;;;;;4894004;29;20025;-89
2022/06/21 12:18:28;;;;;;;3.53;0.75;;;29.60;32.80;;;;;;4896533;29;20096;-91
2022/06/21 12:21:23;;;;;;;3.15;0.68;;;29.10;35.00;;;;;;4910857;29;20035;-90
2022/06/21 12:23:55;;;;;;;0.95;0.70;;;28.90;36.00;;;;;;4908084;29;20092;-91
2022/06/21 12:26:24;;;;;;;1.92;0.60;;;28.80;33.30;;;;;;4912059;29;20032;-90
2022/06/21 12:28:54;;;;;;;1.02;0.50;;;28.90;35.30;;;;;;4923374;29;20055;-92
2022/06/21 12:31:31;;;;;;;1.02;0.60;;;29.30;34.80;;;;;;4911262;29;20102;-90
2022/06/21 12:34:11;;;;;;;2.65;0.65;;;29.20;34.90;;;;;;4891196;29;20032;-91
2022/06/21 12:36:44;;;;;;;1.50;0.50;;;29.20;33.80;;;;;;4911053;29;20042;-90
2022/06/21 12:39:11;;;;;;;1.73;0.70;;;28.40;34.60;;;;;;4906514;29;20792;-92
2022/06/21 12:41:55;;;;;;;1.08;0.63;;;28.60;34.10;;;;;;4925445;29;20040;-90
2022/06/21 12:44:38;;;;;;;1.33;0.50;;;28.60;33.90;;;;;;4929472;29;20095;-90
2022/06/21 12:47:19;;;;;;;1.23;0.50;;;28.90;35.60;;;;;;4895321;29;20116;-92
2022/06/21 12:50:04;;;;;;;2.42;0.70;;;29.40;34.40;;;;;;4914469;29;20054;-93
2022/06/21 12:52:44;;;;;;;4.88;0.50;;;30.00;35.10;;;;;;4892089;29;20032;-93
2022/06/21 12:55:43;;;;;;;1.30;0.50;;;30.40;33.90;;;;;;4921707;29;20119;-91
2022/06/21 12:58:26;;;;;;;1.05;0.50;;;30.90;33.80;;;;;;4889408;29;20081;-90
2022/06/21 13:00:55;;;;;;;0.47;0.47;;;31.00;33.20;;;;;;4903686;29;20521;-90
2022/06/21 13:03:54;;;;;;;2.63;0.50;;;31.40;32.50;;;;;;4906052;29;20044;-91
2022/06/21 13:06:39;;;;;;;1.30;0.50;;;30.80;30.80;;;;;;4918707;29;20024;-92
2022/06/21 13:09:35;;;;;;;0.80;0.50;;;30.20;33.90;;;;;;4918893;29;20047;-91
2022/06/21 13:12:48;;;;;;;0.88;0.60;;;30.40;33.70;;;;;;4908693;29;20039;-90
2022/06/21 13:15:39;;;;;;;0.70;0.52;;;30.60;32.00;;;;;;4917583;29;20029;-92
2022/06/21 13:18:36;;;;;;;0.50;0.45;;;30.90;32.70;;;;;;4900238;29;20044;-89
2022/06/21 13:21:25;;;;;;;1.38;0.40;;;31.00;31.90;;;;;;4913386;29;20060;-91
2022/06/21 13:24:24;;;;;;;2.95;0.60;;;31.10;31.70;;;;;;4908228;29;20028;-91
2022/06/21 13:26:59;;;;;;;1.08;0.60;;;30.80;31.80;;;;;;4892847;29;20036;-91
2022/06/21 13:29:38;;;;;;;1.27;0.50;;;29.90;32.60;;;;;;4905314;29;20532;-92
2022/06/21 13:32:13;;;;;;;0.50;0.50;;;29.20;34.00;;;;;;4897238;29;20046;-89
2022/06/21 13:34:43;;;;;;;3.55;0.70;;;29.40;36.40;;;;;;4920375;29;20552;-91
2022/06/21 13:37:17;;;;;;;1.60;0.60;;;29.50;35.90;;;;;;4921916;29;20034;-88
2022/06/21 13:39:49;;;;;;;1.58;0.60;;;29.80;34.80;;;;;;4916246;29;20378;-91
2022/06/21 13:42:45;;;;;;;5.05;0.70;;;30.00;33.20;;;;;;4918284;29;20036;-91
2022/06/21 13:45:29;;;;;;;0.70;0.50;;;30.10;33.30;;;;;;4912218;29;20052;-90
2022/06/21 13:48:14;;;;;;;0.60;0.50;;;29.70;33.40;;;;;;4888443;29;20428;-89
2022/06/21 13:51:01;;;;;;;1.05;0.50;;;29.50;33.70;;;;;;4901355;29;20032;-91
2022/06/21 13:53:48;;;;;;;1.27;0.52;;;29.40;33.00;;;;;;4900211;29;20028;-93
2022/06/21 13:56:33;;;;;;;1.38;0.60;;;28.60;33.30;;;;;;4926427;29;20506;-90
2022/06/21 13:59:26;;;;;;;2.78;0.50;;;28.40;35.90;;;;;;4901751;29;20036;-90
2022/06/21 14:02:15;;;;;;;1.58;0.60;;;28.60;36.40;;;;;;4922163;29;20031;-91
2022/06/21 14:05:19;;;;;;;1.85;0.50;;;28.90;34.80;;;;;;4901011;29;20070;-91